YXGH weather

Goulburn Hospital Helipad
Goulburn, New South Wales, Australia

Public forecast

Using degrees Celsius for public forecast. Weather courtesy of forecast.io.

METAR (pilot weather report)

Closest report is Canberra International Airport, 42.1 nm (78.0 km) SW. Retrieved 2019/03/23 16:30 UTC (18 minutes ago):

YSCB 231630Z AUTO 15001KT 9999 // NCD 16/14 Q1012 RF00.0/000.0

TAF (pilot weather forecast)

Closest forecast is Canberra International Airport, 42.1 nm (78.0 km) SW. Retrieved 2019/03/23 12:37 UTC (4 hours ago):

TAF YSCB 231107Z 2312/2412 VRB03KT CAVOK FM240000 30010KT CAVOK FM240500 30012KT 9999 -SHRA SCT050 BECMG 2408/2410 30010KT 9999 -SHRA BKN020 INTER 2410/2412 4000 SHRA BKN015 PROB30 2319/2321 2000 BR